createdAt,value
2023-04-27T00:02:41.845Z,100072.41
2023-04-27T00:06:44.882Z,100063.66
2023-04-27T00:10:49.324Z,100059.22
2023-04-27T00:14:52.662Z,100065.34
2023-04-27T00:18:55.857Z,100061.81
2023-04-27T00:22:58.925Z,100059.19
2023-04-27T00:27:03.360Z,100059.19
2023-04-27T00:31:06.589Z,100062.75
2023-04-27T00:35:10.575Z,100055.72
2023-04-27T00:39:13.707Z,100053.09
2023-04-27T00:43:18.280Z,100057.50
2023-04-27T00:47:21.621Z,100047.84
2023-04-27T00:51:28.162Z,100043.44
2023-04-27T00:55:31.705Z,100046.94
2023-04-27T00:59:36.206Z,100048.66
2023-04-27T01:03:39.426Z,100043.38
2023-04-27T01:07:43.827Z,100046.81
2023-04-27T01:11:46.905Z,100045.91
2023-04-27T01:15:51.686Z,100038.91
2023-04-27T01:19:56.798Z,100050.22
2023-04-27T01:24:01.264Z,100045.81
2023-04-27T01:28:04.231Z,100043.13
2023-04-27T01:32:07.572Z,100045.69
2023-04-27T01:36:11.743Z,100060.59
2023-04-27T01:40:16.759Z,100053.56
2023-04-27T01:44:21.161Z,100055.28
2023-04-27T01:48:24.339Z,100051.78
2023-04-27T01:52:27.397Z,100057.00
2023-04-27T01:56:33.234Z,100060.47
2023-04-27T02:00:36.239Z,100066.53
2023-04-27T02:04:39.386Z,100059.47
2023-04-27T02:08:42.531Z,100058.56
2023-04-27T02:12:46.955Z,100065.50
2023-04-27T02:16:51.378Z,100058.41
2023-04-27T02:20:54.437Z,100068.00
2023-04-27T02:24:57.387Z,100068.78
2023-04-27T02:29:03.446Z,100073.03
2023-04-27T02:33:07.172Z,100069.44
2023-04-27T02:37:10.418Z,100071.09
2023-04-27T02:41:13.455Z,100076.22
2023-04-27T02:45:18.148Z,100074.41
2023-04-27T02:49:21.116Z,100075.16
2023-04-27T02:53:24.590Z,100076.81
2023-04-27T02:57:28.856Z,100077.53
2023-04-27T03:01:33.462Z,100080.09
2023-04-27T03:05:37.245Z,100079.03
2023-04-27T03:09:40.462Z,100085.00
2023-04-27T03:13:43.456Z,100087.50
2023-04-27T03:17:48.394Z,100090.06
2023-04-27T03:21:51.409Z,100086.53
2023-04-27T03:25:54.565Z,100089.94
2023-04-27T03:29:57.668Z,100094.16
2023-04-27T03:34:02.299Z,100094.88
2023-04-27T03:38:05.285Z,100093.84
2023-04-27T03:42:08.441Z,100098.16
2023-04-27T03:46:11.493Z,100101.56
2023-04-27T03:50:16.353Z,100111.13
2023-04-27T03:54:19.405Z,100099.66
2023-04-27T03:58:22.521Z,100116.16
2023-04-27T04:02:44.049Z,100115.19
2023-04-27T04:06:49.041Z,100115.19
2023-04-27T04:10:52.022Z,100121.31
2023-04-27T04:14:55.370Z,100123.97
2023-04-27T04:18:59.223Z,100118.72
2023-04-27T04:23:03.814Z,100115.25
2023-04-27T04:27:06.946Z,100121.38
2023-04-27T04:31:10.047Z,100127.47
2023-04-27T04:35:13.328Z,100124.03
2023-04-27T04:39:17.946Z,100130.19
2023-04-27T04:43:21.504Z,100127.56
2023-04-27T04:47:24.867Z,100132.88
2023-04-27T04:51:28.579Z,100127.69
2023-04-27T04:55:33.066Z,100135.66
2023-04-27T04:59:39.641Z,100136.59
2023-04-27T05:03:42.926Z,100142.88
2023-04-27T05:07:46.115Z,100143.91
2023-04-27T05:11:50.612Z,100143.25
2023-04-27T05:15:54.040Z,100139.97
2023-04-27T05:19:58.274Z,100142.81
2023-04-27T05:24:01.566Z,100144.84
2023-04-27T05:28:06.272Z,100150.38
2023-04-27T05:32:09.669Z,100150.75
2023-04-27T05:36:12.906Z,100152.81
2023-04-27T05:40:16.604Z,100145.31
2023-04-27T05:44:21.188Z,100150.16
2023-04-27T05:48:24.205Z,100154.94
2023-04-27T05:52:31.102Z,100157.00
2023-04-27T05:56:34.200Z,100174.81
2023-04-27T06:00:38.914Z,100163.66
2023-04-27T06:04:41.922Z,100171.78
2023-04-27T06:08:45.076Z,100171.81
2023-04-27T06:12:48.061Z,100185.00
2023-04-27T06:16:52.516Z,100179.75
2023-04-27T06:21:01.195Z,100190.34
2023-04-27T06:25:04.727Z,100189.47
2023-04-27T06:29:08.453Z,100196.63
2023-04-27T06:33:12.945Z,100192.34
2023-04-27T06:37:17.263Z,100188.97
2023-04-27T06:41:20.333Z,100183.75
2023-04-27T06:45:23.412Z,100192.50
2023-04-27T06:49:27.969Z,100196.00
2023-04-27T06:53:32.239Z,100196.09
2023-04-27T06:57:35.297Z,100198.75
2023-04-27T07:01:38.608Z,100198.84
2023-04-27T07:05:43.246Z,100192.75
2023-04-27T07:09:46.530Z,100177.88
2023-04-27T07:13:49.625Z,100187.63
2023-04-27T07:17:54.092Z,100183.28
2023-04-27T07:21:58.986Z,100183.31
2023-04-27T07:26:02.615Z,100178.91
2023-04-27T07:30:08.913Z,100173.75
2023-04-27T07:34:12.441Z,100173.78
2023-04-27T07:38:17.515Z,100175.59
2023-04-27T07:42:22.323Z,100175.66
2023-04-27T07:46:26.457Z,100175.69
2023-04-27T07:50:30.226Z,100168.66
2023-04-27T07:54:34.712Z,100179.25
2023-04-27T07:58:38.012Z,100179.25
2023-04-27T08:02:41.318Z,100176.63
2023-04-27T08:06:46.778Z,100181.03
2023-04-27T08:10:51.597Z,100178.38
2023-04-27T08:14:54.557Z,100180.16
2023-04-27T08:18:58.615Z,100178.38
2023-04-27T08:23:03.223Z,100174.88
2023-04-27T08:27:08.528Z,100182.78
2023-04-27T08:31:11.591Z,100176.59
2023-04-27T08:35:14.851Z,100184.53
2023-04-27T08:39:18.315Z,100176.59
2023-04-27T08:43:23.049Z,100181.84
2023-04-27T08:47:35.160Z,100183.56
2023-04-27T08:51:45.070Z,100179.09
2023-04-27T08:55:48.196Z,100176.44
2023-04-27T09:00:01.046Z,100184.31
2023-04-27T09:04:06.293Z,100181.59
2023-04-27T09:08:10.819Z,100184.25
2023-04-27T09:12:19.004Z,100168.44
2023-04-27T09:16:26.544Z,100175.44
2023-04-27T09:20:29.656Z,100165.72
2023-04-27T09:24:32.971Z,100170.97
2023-04-27T09:28:39.717Z,100173.53
2023-04-27T09:32:54.656Z,100175.31
2023-04-27T09:36:58.148Z,100176.06
2023-04-27T09:41:01.831Z,100170.66
2023-04-27T09:45:07.967Z,100164.56
2023-04-27T09:49:14.567Z,100157.47
2023-04-27T09:53:23.144Z,100148.63
2023-04-27T09:57:36.449Z,100151.16
2023-04-27T10:01:45.016Z,100144.03
2023-04-27T10:06:32.429Z,100143.13
2023-04-27T10:10:44.355Z,100137.78
2023-04-27T10:14:52.150Z,100135.00
2023-04-27T10:18:56.416Z,100130.56
2023-04-27T10:23:01.807Z,100133.19
2023-04-27T10:27:07.875Z,100120.81
2023-04-27T10:31:12.131Z,100128.06
2023-04-27T10:35:15.206Z,100120.06
2023-04-27T10:39:29.825Z,100126.94
2023-04-27T10:43:39.076Z,100119.00
2023-04-27T10:47:43.788Z,100114.47
2023-04-27T10:51:47.689Z,100116.97
2023-04-27T10:55:56.517Z,100111.59
2023-04-27T11:04:18.675Z,100103.31
2023-04-27T11:08:22.077Z,100102.44
2023-04-27T11:12:25.180Z,100103.34
2023-04-27T11:16:29.637Z,100109.59
2023-04-27T11:20:35.250Z,100107.94
2023-04-27T11:24:38.597Z,100105.38
2023-04-27T11:28:42.385Z,100110.88
2023-04-27T11:32:45.407Z,100107.31
2023-04-27T11:37:14.335Z,100110.84
2023-04-27T11:41:20.200Z,100114.31
2023-04-27T11:45:27.515Z,100108.84
2023-04-27T11:49:30.579Z,100114.06
2023-04-27T11:53:36.551Z,100102.56
2023-04-27T11:57:40.441Z,100100.75
2023-04-27T12:01:43.564Z,100093.69
2023-04-27T12:05:50.345Z,100098.88
2023-04-27T12:09:54.811Z,100096.03
2023-04-27T12:13:58.669Z,100088.91
2023-04-27T12:18:01.766Z,100083.38
2023-04-27T12:22:05.417Z,100081.22
2023-04-27T12:26:09.927Z,100076.63
2023-04-27T12:30:13.567Z,100067.63
2023-04-27T12:34:16.958Z,100059.63
2023-04-27T12:38:20.060Z,100048.78
2023-04-27T12:42:24.945Z,100049.53
2023-04-27T12:46:28.105Z,100046.84
2023-04-27T12:50:31.902Z,100044.13
2023-04-27T12:54:34.997Z,100046.69
2023-04-27T12:58:40.015Z,100040.34
2023-04-27T13:02:43.485Z,100042.88
2023-04-27T13:06:46.924Z,100038.47
2023-04-27T13:10:50.025Z,100044.34
2023-04-27T13:14:54.470Z,100035.28
2023-04-27T13:18:57.612Z,100037.97
2023-04-27T13:23:01.050Z,100031.69
2023-04-27T13:27:04.290Z,100044.22
2023-04-27T13:31:08.761Z,100042.63
2023-04-27T13:35:12.380Z,100041.13
2023-04-27T13:39:18.460Z,100046.63
2023-04-27T13:43:21.931Z,100035.09
2023-04-27T13:47:26.439Z,100038.75
2023-04-27T13:51:29.799Z,100034.28
2023-04-27T13:55:32.854Z,100031.63
2023-04-27T13:59:36.019Z,100035.94
2023-04-27T14:03:42.682Z,100028.91
2023-04-27T14:07:47.045Z,100027.16
2023-04-27T14:11:57.096Z,100033.44
2023-04-27T14:16:00.492Z,100017.56
2023-04-27T14:20:06.961Z,100019.34
2023-04-27T14:24:10.029Z,100025.47
2023-04-27T14:28:14.730Z,100035.31
2023-04-27T14:32:18.096Z,100028.44
2023-04-27T14:36:22.506Z,100028.56
2023-04-27T14:40:25.742Z,100026.69
2023-04-27T14:44:29.143Z,100027.41
2023-04-27T14:48:32.952Z,100032.97
2023-04-27T14:52:37.334Z,100026.94
2023-04-27T14:56:40.434Z,100020.84
2023-04-27T15:00:43.607Z,100033.22
2023-04-27T15:04:46.920Z,100018.25
2023-04-27T15:08:51.413Z,100038.84
2023-04-27T15:12:54.504Z,100017.66
2023-04-27T15:16:57.500Z,100031.72
2023-04-27T15:21:00.987Z,100038.72
2023-04-27T15:25:06.176Z,100022.91
2023-04-27T15:29:09.208Z,100031.94
2023-04-27T15:33:12.466Z,100024.03
2023-04-27T15:37:15.543Z,100020.59
2023-04-27T15:41:20.164Z,100028.63
2023-04-27T15:45:23.587Z,100023.41
2023-04-27T15:49:26.611Z,100018.13
2023-04-27T15:53:29.615Z,100023.44
2023-04-27T15:57:34.006Z,100018.09
2023-04-27T16:01:37.297Z,100010.97
2023-04-27T16:05:40.913Z,100010.97
2023-04-27T16:09:44.009Z,100018.03
2023-04-27T16:13:48.430Z,100014.63
2023-04-27T16:17:51.472Z,100016.47
2023-04-27T16:21:54.627Z,100010.28
2023-04-27T16:25:57.671Z,100009.34
2023-04-27T16:30:02.152Z,100009.41
2023-04-27T16:34:05.351Z,100012.09
2023-04-27T16:38:08.511Z,100006.81
2023-04-27T16:42:13.326Z,100011.31
2023-04-27T16:46:18.377Z,100023.75
2023-04-27T16:50:21.493Z,100016.72
2023-04-27T16:54:24.543Z,100015.97
2023-04-27T16:58:27.582Z,100016.00
2023-04-27T17:02:32.309Z,100027.56
2023-04-27T17:06:35.858Z,100011.66
2023-04-27T17:10:38.882Z,100024.97
2023-04-27T17:14:42.484Z,100022.38
2023-04-27T17:18:47.487Z,100022.47
2023-04-27T17:22:50.865Z,100029.59
2023-04-27T17:26:54.043Z,100035.88
2023-04-27T17:30:57.606Z,100027.06
2023-04-27T17:35:02.067Z,100031.56
2023-04-27T17:39:05.925Z,100040.47
2023-04-27T17:43:09.335Z,100042.28
2023-04-27T17:47:13.742Z,100044.16
2023-04-27T17:51:18.541Z,100046.00
2023-04-27T17:55:22.020Z,100045.16
2023-04-27T17:59:25.657Z,100042.59
2023-04-27T18:03:29.101Z,100052.34
2023-04-27T18:07:36.394Z,100062.09
2023-04-27T18:11:39.454Z,100062.13
2023-04-27T18:15:42.496Z,100078.13
2023-04-27T18:19:46.074Z,100069.34
2023-04-27T18:23:50.511Z,100079.97
2023-04-27T18:27:55.543Z,100084.47
2023-04-27T18:32:01.751Z,100087.13
2023-04-27T18:36:05.183Z,100102.16
2023-04-27T18:40:11.139Z,100096.06
2023-04-27T18:44:15.373Z,100101.41
2023-04-27T18:48:18.868Z,100112.03
2023-04-27T18:52:22.033Z,100107.63
2023-04-27T18:56:26.506Z,100118.25
2023-04-27T19:00:30.854Z,100120.06
2023-04-27T19:04:34.618Z,100117.47
2023-04-27T19:08:37.789Z,100121.03
2023-04-27T19:12:42.194Z,100121.94
2023-04-27T19:16:45.381Z,100128.13
2023-04-27T19:20:49.376Z,100124.63
2023-04-27T19:24:53.061Z,100122.03
2023-04-27T19:28:57.441Z,100129.94
2023-04-27T19:33:00.610Z,100126.44
2023-04-27T19:37:10.230Z,100130.84
2023-04-27T19:41:20.986Z,100137.88
2023-04-27T19:45:25.661Z,100135.25
2023-04-27T19:49:32.705Z,100145.81
2023-04-27T19:53:35.856Z,100136.13
2023-04-27T19:57:38.931Z,100148.44
2023-04-27T20:01:43.462Z,100145.78
2023-04-27T20:05:47.393Z,100147.59
2023-04-27T20:09:50.525Z,100147.56
2023-04-27T20:13:53.585Z,100140.53
2023-04-27T20:17:58.015Z,100144.91
2023-04-27T20:22:02.990Z,100152.84
2023-04-27T20:26:06.490Z,100153.69
2023-04-27T20:30:10.587Z,100149.28
2023-04-27T20:34:15.272Z,100153.69
2023-04-27T20:38:18.457Z,100146.66
2023-04-27T20:42:21.933Z,100157.22
2023-04-27T20:46:25.173Z,100159.84
2023-04-27T20:50:29.790Z,100158.06
2023-04-27T20:54:33.024Z,100159.81
2023-04-27T20:58:36.208Z,100158.91
2023-04-27T21:02:39.294Z,100158.88
2023-04-27T21:06:43.788Z,100154.47
2023-04-27T21:10:46.884Z,100156.19
2023-04-27T21:14:49.898Z,100160.59
2023-04-27T21:18:52.917Z,100167.59
2023-04-27T21:22:57.381Z,100168.44
2023-04-27T21:27:00.465Z,100167.50
2023-04-27T21:31:03.591Z,100170.13
2023-04-27T21:35:07.753Z,100173.63
2023-04-27T21:39:12.234Z,100173.59
2023-04-27T21:43:15.287Z,100166.50
2023-04-27T21:47:18.476Z,100171.78
2023-04-27T21:51:21.715Z,100173.50
2023-04-27T21:55:26.178Z,100179.59
2023-04-27T21:59:29.317Z,100178.72
2023-04-27T22:03:32.784Z,100187.50
2023-04-27T22:07:36.350Z,100186.59
2023-04-27T22:11:41.257Z,100192.69
2023-04-27T22:15:44.382Z,100192.69
2023-04-27T22:19:47.428Z,100201.41
2023-04-27T22:23:50.530Z,100202.25
2023-04-27T22:27:54.910Z,100205.66
2023-04-27T22:31:58.487Z,100203.81
2023-04-27T22:36:02.231Z,100199.44
2023-04-27T22:40:08.730Z,100197.66
2023-04-27T22:44:13.290Z,100188.88
2023-04-27T22:48:16.923Z,100187.09
2023-04-27T22:52:20.186Z,100193.22
2023-04-27T22:56:23.486Z,100186.16
2023-04-27T23:00:27.941Z,100188.75
2023-04-27T23:04:30.987Z,100172.88
2023-04-27T23:08:34.062Z,100177.22
2023-04-27T23:12:37.780Z,100173.66
2023-04-27T23:16:42.281Z,100170.00
2023-04-27T23:20:45.380Z,100162.06
2023-04-27T23:24:48.427Z,100161.13
2023-04-27T23:28:51.978Z,100166.34
2023-04-27T23:32:56.515Z,100166.31
2023-04-27T23:37:00.117Z,100164.56
2023-04-27T23:41:03.127Z,100161.84
2023-04-27T23:45:06.915Z,100162.69
2023-04-27T23:49:11.494Z,100171.41
2023-04-27T23:53:14.768Z,100166.97
2023-04-27T23:57:17.844Z,100166.09
